createdAt,value
2018-09-16T00:01:53.123Z,13.60
2018-09-16T00:06:01.402Z,13.40
2018-09-16T00:10:09.738Z,13.50
2018-09-16T00:14:18.090Z,13.40
2018-09-16T00:18:26.474Z,13.40
2018-09-16T00:22:34.786Z,13.40
2018-09-16T00:26:43.100Z,13.30
2018-09-16T00:30:51.388Z,13.40
2018-09-16T00:34:59.764Z,13.40
2018-09-16T00:39:09.199Z,13.30
2018-09-16T00:43:17.489Z,13.30
2018-09-16T00:47:25.840Z,13.20
2018-09-16T00:51:34.197Z,13.20
2018-09-16T00:55:42.497Z,13.20
2018-09-16T00:59:50.810Z,13.20
2018-09-16T01:03:59.123Z,13.20
2018-09-16T01:08:07.479Z,13.20
2018-09-16T01:12:15.771Z,13.20
2018-09-16T01:16:24.097Z,13.20
2018-09-16T01:20:32.420Z,13.10
2018-09-16T01:24:40.727Z,13.00
2018-09-16T01:28:49.043Z,13.00
2018-09-16T01:32:57.328Z,12.90
2018-09-16T01:37:10.992Z,12.90
2018-09-16T01:41:19.796Z,12.90
2018-09-16T01:45:28.091Z,13.00
2018-09-16T01:49:36.424Z,12.90
2018-09-16T01:53:44.688Z,12.90
2018-09-16T01:57:52.983Z,12.90
2018-09-16T02:02:01.280Z,12.80
2018-09-16T02:06:09.565Z,12.90
2018-09-16T02:14:25.885Z,12.80
2018-09-16T02:18:34.149Z,12.80
2018-09-16T02:22:42.456Z,12.70
2018-09-16T02:26:50.716Z,12.70
2018-09-16T02:30:59.038Z,12.60
2018-09-16T02:35:07.376Z,12.60
2018-09-16T02:39:15.664Z,12.70
2018-09-16T02:43:23.963Z,12.60
2018-09-16T02:47:32.231Z,12.70
2018-09-16T02:51:40.529Z,12.60
2018-09-16T02:55:48.846Z,12.60
2018-09-16T02:59:57.186Z,12.70
2018-09-16T03:04:05.509Z,12.60
2018-09-16T03:08:13.804Z,12.60
2018-09-16T03:12:22.101Z,12.60
2018-09-16T03:16:30.378Z,12.60
2018-09-16T03:20:38.648Z,12.60
2018-09-16T03:24:46.978Z,12.60
2018-09-16T03:28:55.328Z,12.60
2018-09-16T03:33:03.605Z,12.60
2018-09-16T03:37:11.874Z,12.50
2018-09-16T03:41:20.187Z,12.50
2018-09-16T03:45:28.460Z,12.50
2018-09-16T03:49:36.735Z,12.50
2018-09-16T03:53:45.040Z,12.50
2018-09-16T03:57:53.269Z,12.50
2018-09-16T04:02:01.652Z,12.50
2018-09-16T04:06:09.951Z,12.50
2018-09-16T04:10:18.239Z,12.40
2018-09-16T04:14:26.528Z,12.50
2018-09-16T04:18:34.817Z,12.50
2018-09-16T04:22:43.107Z,12.40
2018-09-16T04:26:51.401Z,12.50
2018-09-16T04:30:59.692Z,12.50
2018-09-16T04:35:08.728Z,12.50
2018-09-16T04:39:17.014Z,12.40
2018-09-16T04:43:25.265Z,12.50
2018-09-16T04:47:33.554Z,12.50
2018-09-16T04:51:41.852Z,12.40
2018-09-16T04:55:50.117Z,12.50
2018-09-16T04:59:58.417Z,12.40
2018-09-16T05:04:06.848Z,12.40
2018-09-16T05:08:15.137Z,12.40
2018-09-16T05:12:23.413Z,12.30
2018-09-16T05:16:31.700Z,12.30
2018-09-16T05:20:40.092Z,12.30
2018-09-16T05:24:48.511Z,12.30
2018-09-16T05:37:12.857Z,12.20
2018-09-16T05:41:21.127Z,12.20
2018-09-16T05:45:29.482Z,12.20
2018-09-16T05:49:37.787Z,12.20
2018-09-16T05:53:46.084Z,12.20
2018-09-16T05:57:54.369Z,12.10
2018-09-16T06:02:02.768Z,12.10
2018-09-16T06:06:11.082Z,12.20
2018-09-16T06:10:19.740Z,12.10
2018-09-16T06:14:28.061Z,12.20
2018-09-16T06:18:36.344Z,12.30
2018-09-16T06:22:44.696Z,12.40
2018-09-16T06:26:52.967Z,12.50
2018-09-16T06:31:01.394Z,12.50
2018-09-16T06:35:09.703Z,12.70
2018-09-16T06:39:17.990Z,12.80
2018-09-16T06:43:26.305Z,12.80
2018-09-16T06:47:34.637Z,12.90
2018-09-16T06:51:43.661Z,13.00
2018-09-16T06:55:51.923Z,13.00
2018-09-16T07:00:00.257Z,13.10
2018-09-16T07:04:08.524Z,13.20
2018-09-16T07:08:16.957Z,13.30
2018-09-16T07:12:25.229Z,13.30
2018-09-16T07:16:33.510Z,13.40
2018-09-16T07:20:41.811Z,13.50
2018-09-16T07:24:50.103Z,13.70
2018-09-16T07:28:58.366Z,13.80
2018-09-16T07:33:06.698Z,14.00
2018-09-16T07:37:14.965Z,14.30
2018-09-16T07:41:23.216Z,14.30
2018-09-16T07:45:31.500Z,14.50
2018-09-16T07:49:39.742Z,14.50
2018-09-16T07:53:48.002Z,14.60
2018-09-16T07:57:56.303Z,14.70
2018-09-16T08:02:04.563Z,14.90
2018-09-16T08:06:12.891Z,15.10
2018-09-16T08:10:21.117Z,15.10
2018-09-16T08:14:29.425Z,15.40
2018-09-16T08:18:37.702Z,15.70
2018-09-16T08:22:46.018Z,16.10
2018-09-16T08:26:54.322Z,16.20
2018-09-16T08:31:02.563Z,16.40
2018-09-16T08:35:11.021Z,16.50
2018-09-16T08:39:19.303Z,16.80
2018-09-16T08:43:27.565Z,16.80
2018-09-16T08:47:35.843Z,16.90
2018-09-16T08:51:44.133Z,17.00
2018-09-16T08:55:52.398Z,17.00
2018-09-16T09:00:00.680Z,17.10
2018-09-16T09:04:08.973Z,17.30
2018-09-16T09:08:17.235Z,17.40
2018-09-16T09:16:33.760Z,17.70
2018-09-16T09:20:42.033Z,17.90
2018-09-16T09:24:50.276Z,18.30
2018-09-16T09:28:58.563Z,18.60
2018-09-16T09:33:06.835Z,18.70
2018-09-16T09:37:15.104Z,19.00
2018-09-16T09:41:23.351Z,19.30
2018-09-16T09:49:39.622Z,19.60
2018-09-16T09:53:47.877Z,19.80
2018-09-16T09:57:56.174Z,19.90
2018-09-16T10:02:04.436Z,20.00
2018-09-16T10:06:12.846Z,20.10
2018-09-16T10:10:21.045Z,20.30
2018-09-16T10:14:29.389Z,20.40
2018-09-16T10:18:37.643Z,20.70
2018-09-16T10:22:45.950Z,20.80
2018-09-16T10:26:54.250Z,20.80
2018-09-16T10:31:02.488Z,20.80
2018-09-16T10:35:10.752Z,20.80
2018-09-16T10:39:19.033Z,20.80
2018-09-16T10:43:27.337Z,20.90
2018-09-16T10:47:35.608Z,21.00
2018-09-16T10:51:43.893Z,21.00
2018-09-16T10:55:52.132Z,21.10
2018-09-16T11:00:00.421Z,21.20
2018-09-16T11:04:08.641Z,21.30
2018-09-16T11:08:16.949Z,21.40
2018-09-16T11:12:25.158Z,21.60
2018-09-16T11:16:33.416Z,21.70
2018-09-16T11:20:41.670Z,21.80
2018-09-16T11:28:57.957Z,21.70
2018-09-16T11:33:06.361Z,21.70
2018-09-16T11:37:14.602Z,21.60
2018-09-16T11:41:22.859Z,21.80
2018-09-16T11:45:31.108Z,22.00
2018-09-16T11:49:39.384Z,22.10
2018-09-16T11:53:47.703Z,22.10
2018-09-16T11:57:56.677Z,22.40
2018-09-16T12:02:05.018Z,22.10
2018-09-16T12:06:13.194Z,21.90
2018-09-16T12:10:21.448Z,21.70
2018-09-16T12:14:29.747Z,21.80
2018-09-16T12:18:38.043Z,21.90
2018-09-16T12:22:46.294Z,21.90
2018-09-16T12:26:54.568Z,21.90
2018-09-16T12:31:02.837Z,21.90
2018-09-16T12:35:11.110Z,21.90
2018-09-16T12:39:19.398Z,21.90
2018-09-16T12:43:28.020Z,22.00
2018-09-16T12:47:36.284Z,22.20
2018-09-16T12:51:44.557Z,22.30
2018-09-16T12:55:52.824Z,22.60
2018-09-16T13:00:01.110Z,22.60
2018-09-16T13:04:09.411Z,22.60
2018-09-16T13:08:17.673Z,22.70
2018-09-16T13:12:25.976Z,22.70
2018-09-16T13:16:34.538Z,22.50
2018-09-16T13:20:42.771Z,22.50
2018-09-16T13:24:51.073Z,22.70
2018-09-16T13:28:59.312Z,22.70
2018-09-16T13:33:07.587Z,22.80
2018-09-16T13:37:15.818Z,22.90
2018-09-16T13:41:24.089Z,23.00
2018-09-16T13:45:32.354Z,23.10
2018-09-16T13:49:40.613Z,23.20
2018-09-16T13:53:48.875Z,23.40
2018-09-16T13:57:57.153Z,23.60
2018-09-16T14:02:05.390Z,23.60
2018-09-16T14:06:13.649Z,23.70
2018-09-16T14:10:21.903Z,23.70
2018-09-16T14:14:30.274Z,23.50
2018-09-16T14:18:38.520Z,23.40
2018-09-16T14:22:46.816Z,23.20
2018-09-16T14:26:55.046Z,23.00
2018-09-16T14:31:03.303Z,22.70
2018-09-16T14:35:11.579Z,22.80
2018-09-16T14:39:19.846Z,22.80
2018-09-16T14:43:28.073Z,22.70
2018-09-16T14:47:36.333Z,22.70
2018-09-16T14:55:52.622Z,22.60
2018-09-16T15:00:00.889Z,22.50
2018-09-16T15:04:09.172Z,22.50
2018-09-16T15:12:26.748Z,22.40
2018-09-16T15:16:35.033Z,22.30
2018-09-16T15:20:43.297Z,22.20
2018-09-16T15:24:51.554Z,22.00
2018-09-16T15:28:59.821Z,22.10
2018-09-16T15:33:08.033Z,22.00
2018-09-16T15:41:24.302Z,21.90
2018-09-16T15:45:32.583Z,22.00
2018-09-16T15:49:40.863Z,22.00
2018-09-16T15:53:49.197Z,22.00
2018-09-16T15:57:57.451Z,22.10
2018-09-16T16:02:05.712Z,22.20
2018-09-16T16:06:13.958Z,22.20
2018-09-16T16:10:22.276Z,22.30
2018-09-16T16:14:30.496Z,22.30
2018-09-16T16:18:38.737Z,22.20
2018-09-16T16:22:47.006Z,22.30
2018-09-16T16:26:55.253Z,22.30
2018-09-16T16:31:03.533Z,22.20
2018-09-16T16:35:11.833Z,22.10
2018-09-16T16:39:20.074Z,22.00
2018-09-16T16:43:28.335Z,21.90
2018-09-16T16:47:36.606Z,21.70
2018-09-16T16:51:44.922Z,21.60
2018-09-16T16:55:53.152Z,21.60
2018-09-16T17:00:01.409Z,21.40
2018-09-16T17:04:09.729Z,21.20
2018-09-16T17:08:17.984Z,21.10
2018-09-16T17:12:26.252Z,21.00
2018-09-16T17:16:34.560Z,20.80
2018-09-16T17:20:42.794Z,20.70
2018-09-16T17:24:51.055Z,20.60
2018-09-16T17:28:59.367Z,20.50
2018-09-16T17:33:07.583Z,20.40
2018-09-16T17:37:16.953Z,20.30
2018-09-16T17:41:25.238Z,20.20
2018-09-16T17:45:33.509Z,20.10
2018-09-16T17:49:41.778Z,19.90
2018-09-16T17:53:50.082Z,19.70
2018-09-16T17:57:58.386Z,19.60
2018-09-16T18:02:06.804Z,19.50
2018-09-16T18:06:15.077Z,19.30
2018-09-16T18:10:23.393Z,19.30
2018-09-16T18:14:31.664Z,19.20
2018-09-16T18:18:40.497Z,19.10
2018-09-16T18:22:48.811Z,19.00
2018-09-16T18:26:57.061Z,19.00
2018-09-16T18:31:05.354Z,18.90
2018-09-16T18:35:13.639Z,18.90
2018-09-16T18:39:21.964Z,18.80
2018-09-16T18:43:30.308Z,18.60
2018-09-16T18:47:38.603Z,18.60
2018-09-16T18:51:46.880Z,18.50
2018-09-16T18:55:55.137Z,18.60
2018-09-16T19:00:03.509Z,18.50
2018-09-16T19:04:11.766Z,18.50
2018-09-16T19:08:20.087Z,18.50
2018-09-16T19:12:28.344Z,18.50
2018-09-16T19:16:36.626Z,18.40
2018-09-16T19:20:44.885Z,18.40
2018-09-16T19:24:53.129Z,18.30
2018-09-16T19:29:01.418Z,18.30
2018-09-16T19:33:09.649Z,18.20
2018-09-16T19:37:17.917Z,18.10
2018-09-16T19:41:26.369Z,18.00
2018-09-16T19:45:34.637Z,17.90
2018-09-16T19:49:42.971Z,17.80
2018-09-16T19:53:51.263Z,17.70
2018-09-16T19:57:59.807Z,17.70
2018-09-16T20:06:16.146Z,17.60
2018-09-16T20:10:24.462Z,17.50
2018-09-16T20:14:32.733Z,17.40
2018-09-16T20:18:40.991Z,17.40
2018-09-16T20:22:49.800Z,17.40
2018-09-16T20:26:58.052Z,17.40
2018-09-16T20:31:06.340Z,17.30
2018-09-16T20:35:14.621Z,17.20
2018-09-16T20:39:22.869Z,17.10
2018-09-16T20:43:31.164Z,17.00
2018-09-16T20:47:39.417Z,17.00
2018-09-16T20:51:47.742Z,17.00
2018-09-16T20:55:56.001Z,16.80
2018-09-16T21:00:04.433Z,16.70
2018-09-16T21:04:12.743Z,16.60
2018-09-16T21:08:21.073Z,16.50
2018-09-16T21:16:37.445Z,16.30
2018-09-16T21:20:45.768Z,16.30
2018-09-16T21:24:54.034Z,16.20
2018-09-16T21:29:02.323Z,16.10
2018-09-16T21:33:10.630Z,16.10
2018-09-16T21:37:18.892Z,16.10
2018-09-16T21:41:27.170Z,15.90
2018-09-16T21:45:35.459Z,15.90
2018-09-16T21:49:43.742Z,15.90
2018-09-16T21:53:52.034Z,15.90
2018-09-16T21:58:00.943Z,15.80
2018-09-16T22:02:09.290Z,15.80
2018-09-16T22:06:17.550Z,15.70
2018-09-16T22:10:25.824Z,15.60
2018-09-16T22:14:34.096Z,15.50
2018-09-16T22:18:42.456Z,15.40
2018-09-16T22:22:50.729Z,15.60
2018-09-16T22:26:59.002Z,15.50
2018-09-16T22:31:07.296Z,15.30
2018-09-16T22:35:15.564Z,15.30
2018-09-16T22:39:23.857Z,15.30
2018-09-16T22:43:32.109Z,15.30
2018-09-16T22:47:40.365Z,15.10
2018-09-16T22:51:48.630Z,15.00
2018-09-16T22:55:56.903Z,15.00
2018-09-16T23:00:05.996Z,14.90
2018-09-16T23:04:14.234Z,14.90
2018-09-16T23:12:31.004Z,14.90
2018-09-16T23:16:39.707Z,14.90
2018-09-16T23:20:48.013Z,14.80
2018-09-16T23:24:56.310Z,14.80
2018-09-16T23:29:04.577Z,14.80
2018-09-16T23:33:12.909Z,14.70
2018-09-16T23:37:21.181Z,14.70
2018-09-16T23:41:29.479Z,14.80
2018-09-16T23:45:37.742Z,14.70
2018-09-16T23:49:46.012Z,14.70
2018-09-16T23:53:54.294Z,14.60
2018-09-16T23:58:02.542Z,14.50
